createdAt,value
2022-12-08T00:01:13.578Z,101106.06
2022-12-08T00:03:40.577Z,101098.88
2022-12-08T00:06:32.232Z,101101.59
2022-12-08T00:09:17.888Z,101107.06
2022-12-08T00:11:44.377Z,101089.34
2022-12-08T00:14:10.958Z,101093.94
2022-12-08T00:16:37.556Z,101084.72
2022-12-08T00:19:04.181Z,101086.59
2022-12-08T00:21:30.731Z,101088.28
2022-12-08T00:23:57.392Z,101071.25
2022-12-08T00:26:23.966Z,101082.19
2022-12-08T00:28:50.535Z,101077.72
2022-12-08T00:31:17.435Z,101081.31
2022-12-08T00:33:44.422Z,101074.16
2022-12-08T00:36:13.562Z,101075.38
2022-12-08T00:38:41.400Z,101081.69
2022-12-08T00:41:13.257Z,101063.78
2022-12-08T00:43:40.373Z,101070.63
2022-12-08T00:46:07.273Z,101068.75
2022-12-08T00:48:33.954Z,101063.47
2022-12-08T00:51:00.646Z,101059.69
2022-12-08T00:53:27.390Z,101042.66
2022-12-08T00:55:54.136Z,101048.75
2022-12-08T00:58:20.801Z,101043.13
2022-12-08T01:00:47.577Z,101041.44
2022-12-08T01:03:14.218Z,101043.28
2022-12-08T01:06:31.672Z,101041.25
2022-12-08T01:08:58.469Z,101031.53
2022-12-08T01:11:25.176Z,101032.72
2022-12-08T01:13:51.885Z,101033.09
2022-12-08T01:16:24.520Z,101043.66
2022-12-08T01:18:51.439Z,101033.78
2022-12-08T01:21:18.843Z,101040.28
2022-12-08T01:23:46.022Z,101041.31
2022-12-08T01:26:15.578Z,101041.69
2022-12-08T01:28:42.794Z,101026.31
2022-12-08T01:31:14.392Z,101022.53
2022-12-08T01:33:41.613Z,101019.63
2022-12-08T01:36:17.859Z,101020.47
2022-12-08T01:38:44.500Z,101021.72
2022-12-08T01:41:15.132Z,101010.78
2022-12-08T01:44:08.349Z,101015.38
2022-12-08T01:46:37.790Z,101012.34
2022-12-08T01:49:27.300Z,101015.75
2022-12-08T01:52:25.243Z,101011.34
2022-12-08T01:55:06.350Z,101007.75
2022-12-08T01:57:42.931Z,101002.47
2022-12-08T02:00:12.939Z,101003.50
2022-12-08T02:03:04.593Z,101000.78
2022-12-08T02:05:34.770Z,100997.75
2022-12-08T02:08:06.843Z,100999.66
2022-12-08T02:10:37.415Z,100989.91
2022-12-08T02:13:07.314Z,100996.25
2022-12-08T02:15:46.081Z,101000.47
2022-12-08T02:19:14.772Z,100991.44
2022-12-08T02:21:42.045Z,100985.31
2022-12-08T02:24:45.001Z,100976.91
2022-12-08T02:27:44.356Z,100974.56
2022-12-08T02:30:31.938Z,100978.16
2022-12-08T02:33:07.336Z,100976.81
2022-12-08T02:35:55.629Z,100979.25
2022-12-08T02:38:25.207Z,100968.53
2022-12-08T02:40:54.990Z,100960.97
2022-12-08T02:43:33.745Z,100967.09
2022-12-08T02:46:04.614Z,100967.09
2022-12-08T02:48:33.764Z,100967.09
2022-12-08T02:51:01.123Z,100956.00
2022-12-08T02:53:32.088Z,100957.22
2022-12-08T02:56:07.661Z,100957.03
2022-12-08T02:59:26.116Z,100961.63
2022-12-08T03:02:38.810Z,100964.75
2022-12-08T03:05:11.820Z,100946.66
2022-12-08T03:07:46.459Z,100936.75
2022-12-08T03:10:25.683Z,100925.63
2022-12-08T03:13:00.086Z,100923.09
2022-12-08T03:15:27.692Z,100921.22
2022-12-08T03:17:58.895Z,100916.59
2022-12-08T03:20:27.916Z,100927.53
2022-12-08T03:22:58.556Z,100922.72
2022-12-08T03:25:30.532Z,100936.56
2022-12-08T03:27:57.490Z,100942.59
2022-12-08T03:30:24.161Z,100950.97
2022-12-08T03:33:03.885Z,100941.63
2022-12-08T03:35:33.255Z,100947.59
2022-12-08T03:38:15.145Z,100938.53
2022-12-08T03:40:42.729Z,100943.81
2022-12-08T03:43:09.345Z,100941.25
2022-12-08T03:45:36.412Z,100935.13
2022-12-08T03:48:03.404Z,100932.59
2022-12-08T03:50:30.022Z,100927.97
2022-12-08T03:52:56.550Z,100921.47
2022-12-08T03:55:23.171Z,100914.31
2022-12-08T03:57:49.764Z,100915.19
2022-12-08T04:00:17.392Z,100916.19
2022-12-08T04:02:44.605Z,100910.91
2022-12-08T04:05:11.280Z,100910.91
2022-12-08T04:07:38.267Z,100908.19
2022-12-08T04:10:05.767Z,100909.22
2022-12-08T04:12:32.939Z,100907.53
2022-12-08T04:14:59.502Z,100903.94
2022-12-08T04:17:26.347Z,100898.66
2022-12-08T04:19:52.935Z,100886.06
2022-12-08T04:22:19.705Z,100887.06
2022-12-08T04:24:46.424Z,100883.31
2022-12-08T04:27:13.129Z,100889.44
2022-12-08T04:29:39.707Z,100885.00
2022-12-08T04:32:06.278Z,100888.59
2022-12-08T04:34:32.891Z,100887.75
2022-12-08T04:36:59.389Z,100889.81
2022-12-08T04:39:26.128Z,100894.63
2022-12-08T04:41:52.667Z,100886.44
2022-12-08T04:44:19.315Z,100889.34
2022-12-08T04:46:46.062Z,100898.00
2022-12-08T04:49:12.855Z,100889.16
2022-12-08T04:51:39.621Z,100896.31
2022-12-08T04:54:06.176Z,100870.03
2022-12-08T04:56:32.704Z,100866.66
2022-12-08T04:58:59.203Z,100866.66
2022-12-08T05:01:25.789Z,100868.31
2022-12-08T05:03:52.806Z,100872.09
2022-12-08T05:06:19.471Z,100874.84
2022-12-08T05:08:46.028Z,100874.28
2022-12-08T05:11:13.549Z,100867.13
2022-12-08T05:13:40.418Z,100871.34
2022-12-08T05:16:13.000Z,100869.31
2022-12-08T05:18:41.420Z,100863.84
2022-12-08T05:21:09.183Z,100868.25
2022-12-08T05:23:36.040Z,100859.00
2022-12-08T05:26:02.725Z,100859.69
2022-12-08T05:28:44.852Z,100864.97
2022-12-08T05:31:14.061Z,100858.00
2022-12-08T05:33:41.338Z,100866.47
2022-12-08T05:36:09.424Z,100855.72
2022-12-08T05:38:36.116Z,100848.88
2022-12-08T05:41:02.758Z,100849.06
2022-12-08T05:43:29.453Z,100856.03
2022-12-08T05:45:56.096Z,100854.16
2022-12-08T05:48:22.693Z,100846.59
2022-12-08T05:50:50.418Z,100856.31
2022-12-08T05:53:19.096Z,100847.25
2022-12-08T05:55:46.390Z,100852.72
2022-12-08T05:58:18.668Z,100850.66
2022-12-08T06:00:46.971Z,100846.88
2022-12-08T06:03:14.985Z,100847.75
2022-12-08T06:05:43.483Z,100846.50
2022-12-08T06:08:10.400Z,100846.50
2022-12-08T06:10:44.993Z,100848.19
2022-12-08T06:13:12.184Z,100843.78
2022-12-08T06:15:39.436Z,100855.38
2022-12-08T06:18:07.297Z,100853.28
2022-12-08T06:20:35.043Z,100848.19
2022-12-08T06:23:02.185Z,100847.00
2022-12-08T06:25:28.998Z,100855.00
2022-12-08T06:27:55.625Z,100845.28
2022-12-08T06:30:22.308Z,100853.28
2022-12-08T06:32:48.976Z,100849.53
2022-12-08T06:35:15.631Z,100858.38
2022-12-08T06:37:42.295Z,100863.47
2022-12-08T06:40:09.347Z,100856.31
2022-12-08T06:42:45.142Z,100856.31
2022-12-08T06:45:14.048Z,100860.53
2022-12-08T06:47:41.095Z,100861.41
2022-12-08T06:50:08.636Z,100862.44
2022-12-08T06:52:40.833Z,100868.53
2022-12-08T06:55:29.119Z,100867.69
2022-12-08T06:57:59.516Z,100863.09
2022-12-08T07:00:26.049Z,100862.91
2022-12-08T07:02:52.638Z,100852.16
2022-12-08T07:05:19.314Z,100852.16
2022-12-08T07:07:45.938Z,100867.31
2022-12-08T07:10:12.654Z,100870.91
2022-12-08T07:12:39.280Z,100866.09
2022-12-08T07:15:06.492Z,100859.97
2022-12-08T07:17:32.980Z,100860.63
2022-12-08T07:19:59.467Z,100856.47
2022-12-08T07:22:25.948Z,100864.50
2022-12-08T07:24:52.529Z,100866.38
2022-12-08T07:27:19.030Z,100876.91
2022-12-08T07:29:45.640Z,100869.56
2022-12-08T07:32:18.132Z,100870.63
2022-12-08T07:34:47.094Z,100867.50
2022-12-08T07:37:13.925Z,100862.88
2022-12-08T07:39:40.766Z,100863.72
2022-12-08T07:42:07.439Z,100859.94
2022-12-08T07:44:34.425Z,100855.34
2022-12-08T07:47:01.214Z,100853.47
2022-12-08T07:49:27.827Z,100851.94
2022-12-08T07:51:54.417Z,100848.38
2022-12-08T07:54:21.079Z,100857.69
2022-12-08T07:56:48.012Z,100854.28
2022-12-08T07:59:14.836Z,100859.38
2022-12-08T08:01:45.174Z,100865.03
2022-12-08T08:04:12.643Z,100871.38
2022-12-08T08:06:39.449Z,100872.22
2022-12-08T08:09:06.366Z,100879.56
2022-12-08T08:11:33.201Z,100898.69
2022-12-08T08:13:59.788Z,100896.16
2022-12-08T08:16:26.592Z,100888.63
2022-12-08T08:18:53.356Z,100892.84
2022-12-08T08:24:07.309Z,100879.19
2022-12-08T08:26:34.237Z,100879.84
2022-12-08T08:29:00.813Z,100881.53
2022-12-08T08:31:28.142Z,100857.59
2022-12-08T08:33:56.815Z,100868.03
2022-12-08T08:36:23.484Z,100863.59
2022-12-08T08:38:50.072Z,100872.94
2022-12-08T08:41:16.739Z,100868.97
2022-12-08T08:43:43.541Z,100861.59
2022-12-08T08:46:10.342Z,100868.41
2022-12-08T08:48:37.697Z,100862.94
2022-12-08T08:51:12.397Z,100865.91
2022-12-08T08:53:39.463Z,100842.25
2022-12-08T08:56:13.964Z,100860.53
2022-12-08T08:58:41.397Z,100866.66
2022-12-08T09:01:08.247Z,100862.53
2022-12-08T09:03:34.899Z,100865.94
2022-12-08T09:06:01.653Z,100857.72
2022-12-08T09:08:28.362Z,100859.22
2022-12-08T09:10:55.027Z,100857.97
2022-12-08T09:13:22.454Z,100861.34
2022-12-08T09:15:49.379Z,100860.66
2022-12-08T09:18:16.074Z,100867.50
2022-12-08T09:20:42.736Z,100861.16
2022-12-08T09:23:09.275Z,100867.31
2022-12-08T09:25:35.880Z,100869.63
2022-12-08T09:28:03.613Z,100864.97
2022-12-08T09:30:30.187Z,100869.44
2022-12-08T09:32:56.721Z,100867.38
2022-12-08T09:35:23.336Z,100862.78
2022-12-08T09:37:49.870Z,100853.31
2022-12-08T09:40:20.403Z,100857.13
2022-12-08T09:43:12.481Z,100847.66
2022-12-08T09:45:39.520Z,100850.59
2022-12-08T09:48:14.152Z,100848.94
2022-12-08T09:50:52.503Z,100853.16
2022-12-08T09:53:32.043Z,100852.13
2022-12-08T09:56:11.130Z,100848.97
2022-12-08T09:58:51.821Z,100847.72
2022-12-08T10:01:20.464Z,100853.84
2022-12-08T10:03:48.024Z,100847.31
2022-12-08T10:06:29.795Z,100850.28
2022-12-08T10:09:33.395Z,100849.03
2022-12-08T10:12:22.122Z,100851.97
2022-12-08T10:14:56.088Z,100841.63
2022-12-08T10:17:28.636Z,100842.94
2022-12-08T10:20:02.428Z,100854.53
2022-12-08T10:22:35.887Z,100838.47
2022-12-08T10:25:15.454Z,100836.38
2022-12-08T10:27:42.024Z,100841.63
2022-12-08T10:30:13.783Z,100837.81
2022-12-08T10:32:42.280Z,100841.22
2022-12-08T10:35:14.680Z,100831.47
2022-12-08T10:37:41.823Z,100841.84
2022-12-08T10:40:08.591Z,100841.84
2022-12-08T10:42:48.624Z,100846.47
2022-12-08T10:45:27.585Z,100834.22
2022-12-08T10:48:16.888Z,100827.88
2022-12-08T10:50:54.577Z,100812.66
2022-12-08T10:53:24.119Z,100816.94
2022-12-08T10:56:02.855Z,100825.56
2022-12-08T10:58:36.628Z,100829.78
2022-12-08T11:01:06.177Z,100824.47
2022-12-08T11:03:47.796Z,100823.63
2022-12-08T11:06:29.428Z,100821.13
2022-12-08T11:08:58.441Z,100812.25
2022-12-08T11:11:48.093Z,100810.41
2022-12-08T11:14:38.017Z,100799.63
2022-12-08T11:17:14.532Z,100799.22
2022-12-08T11:19:44.076Z,100795.19
2022-12-08T11:22:32.501Z,100796.03
2022-12-08T11:25:08.139Z,100794.75
2022-12-08T11:27:36.933Z,100795.38
2022-12-08T11:30:14.944Z,100784.63
2022-12-08T11:32:45.092Z,100785.66
2022-12-08T11:35:26.992Z,100781.47
2022-12-08T11:38:13.468Z,100776.78
2022-12-08T11:40:44.626Z,100777.66
2022-12-08T11:43:36.834Z,100777.03
2022-12-08T11:46:23.840Z,100776.59
2022-12-08T11:49:06.211Z,100794.94
2022-12-08T11:51:37.749Z,100784.38
2022-12-08T11:54:14.077Z,100800.88
2022-12-08T11:56:51.496Z,100807.44
2022-12-08T11:59:30.334Z,100797.53
2022-12-08T12:02:01.956Z,100790.34
2022-12-08T12:04:46.916Z,100801.75
2022-12-08T12:07:30.225Z,100793.94
2022-12-08T12:10:15.662Z,100786.72
2022-12-08T12:12:51.104Z,100787.38
2022-12-08T12:15:28.092Z,100776.41
2022-12-08T12:18:33.781Z,100774.72
2022-12-08T12:21:10.721Z,100775.53
2022-12-08T12:23:42.881Z,100765.84
2022-12-08T12:26:19.873Z,100764.16
2022-12-08T12:28:46.805Z,100762.06
2022-12-08T12:31:16.940Z,100766.50
2022-12-08T12:33:46.635Z,100766.28
2022-12-08T12:36:15.179Z,100762.06
2022-12-08T12:39:01.532Z,100763.75
2022-12-08T12:41:32.897Z,100757.19
2022-12-08T12:44:24.007Z,100756.50
2022-12-08T12:46:50.548Z,100748.44
2022-12-08T12:49:38.644Z,100754.34
2022-12-08T12:52:31.015Z,100748.88
2022-12-08T12:54:57.688Z,100751.81
2022-12-08T12:57:35.233Z,100749.69
2022-12-08T13:00:01.838Z,100745.47
2022-12-08T13:02:39.635Z,100749.25
2022-12-08T13:05:30.331Z,100738.69
2022-12-08T13:08:16.445Z,100734.47
2022-12-08T13:11:11.702Z,100735.75
2022-12-08T13:13:39.360Z,100722.66
2022-12-08T13:16:20.633Z,100727.91
2022-12-08T13:18:52.301Z,100737.59
2022-12-08T13:21:20.006Z,100728.94
2022-12-08T13:24:14.508Z,100728.41
2022-12-08T13:27:03.011Z,100740.06
2022-12-08T13:29:31.570Z,100735.41
2022-12-08T13:31:58.238Z,100742.63
2022-12-08T13:34:46.457Z,100736.72
2022-12-08T13:37:15.808Z,100724.91
2022-12-08T13:39:51.107Z,100711.38
2022-12-08T13:42:29.575Z,100714.78
2022-12-08T13:45:24.200Z,100710.53
2022-12-08T13:48:31.157Z,100714.75
2022-12-08T13:53:22.546Z,100707.34
2022-12-08T13:57:30.574Z,100698.28
2022-12-08T14:00:01.485Z,100700.41
2022-12-08T14:02:46.986Z,100697.25
2022-12-08T14:05:19.143Z,100697.25
2022-12-08T14:08:02.684Z,100692.34
2022-12-08T14:10:32.122Z,100688.56
2022-12-08T14:13:05.567Z,100691.94
2022-12-08T14:15:37.624Z,100691.94
2022-12-08T14:18:07.156Z,100686.03
2022-12-08T14:20:51.946Z,100685.19
2022-12-08T14:23:21.855Z,100680.13
2022-12-08T14:25:48.595Z,100681.84
2022-12-08T14:28:15.906Z,100681.84
2022-12-08T14:30:42.631Z,100685.63
2022-12-08T14:33:14.615Z,100686.28
2022-12-08T14:35:41.266Z,100685.63
2022-12-08T14:38:17.261Z,100688.97
2022-12-08T14:41:04.875Z,100689.84
2022-12-08T14:43:32.734Z,100684.34
2022-12-08T14:46:06.248Z,100683.91
2022-12-08T14:48:38.654Z,100690.09
2022-12-08T14:51:22.974Z,100686.03
2022-12-08T14:53:54.524Z,100684.75
2022-12-08T14:56:23.045Z,100678.84
2022-12-08T14:59:03.079Z,100667.03
2022-12-08T15:01:30.448Z,100677.16
2022-12-08T15:04:17.952Z,100682.03
2022-12-08T15:06:47.752Z,100686.88
2022-12-08T15:09:17.885Z,100697.72
2022-12-08T15:11:44.528Z,100690.16
2022-12-08T15:14:34.588Z,100690.19
2022-12-08T15:17:01.634Z,100699.50
2022-12-08T15:19:31.928Z,100698.25
2022-12-08T15:22:09.190Z,100699.50
2022-12-08T15:24:35.889Z,100702.47
2022-12-08T15:27:04.036Z,100694.44
2022-12-08T15:29:31.257Z,100699.06
2022-12-08T15:32:01.040Z,100693.59
2022-12-08T15:34:27.962Z,100699.94
2022-12-08T15:36:55.270Z,100699.84
2022-12-08T15:39:32.874Z,100698.63
2022-12-08T15:42:00.967Z,100698.22
2022-12-08T15:44:29.233Z,100698.84
2022-12-08T15:46:56.192Z,100699.25
2022-12-08T15:49:24.272Z,100696.06
2022-12-08T15:51:57.366Z,100697.56
2022-12-08T15:54:31.501Z,100693.50
2022-12-08T15:59:45.228Z,100701.13
2022-12-08T16:02:16.692Z,100704.88
2022-12-08T16:05:33.367Z,100696.06
2022-12-08T16:07:38.364Z,100710.38
2022-12-08T16:10:06.882Z,100708.69
2022-12-08T16:16:00.883Z,100719.88
2022-12-08T16:18:34.468Z,100722.00
2022-12-08T16:21:41.906Z,100720.69
2022-12-08T16:23:48.688Z,100721.75
2022-12-08T16:26:44.036Z,100725.56
2022-12-08T16:29:06.381Z,100716.03
2022-12-08T16:31:33.456Z,100721.69
2022-12-08T16:34:00.462Z,100722.94
2022-12-08T16:36:27.058Z,100722.94
2022-12-08T16:38:53.741Z,100726.75
2022-12-08T16:41:38.958Z,100719.56
2022-12-08T16:44:06.575Z,100716.59
2022-12-08T16:46:33.666Z,100718.47
2022-12-08T16:49:00.569Z,100721.22
2022-12-08T16:51:27.715Z,100731.31
2022-12-08T16:53:58.530Z,100727.97
2022-12-08T16:56:32.283Z,100724.78
2022-12-08T16:59:00.341Z,100724.56
2022-12-08T17:01:26.990Z,100722.03
2022-12-08T17:04:22.533Z,100724.53
2022-12-08T17:06:40.373Z,100721.16
2022-12-08T17:09:06.934Z,100719.47
2022-12-08T17:11:37.728Z,100726.66
2022-12-08T17:14:09.191Z,100726.84
2022-12-08T17:16:35.988Z,100720.50
2022-12-08T17:19:02.915Z,100723.06
2022-12-08T17:21:29.901Z,100734.88
2022-12-08T17:23:56.506Z,100739.28
2022-12-08T17:26:23.072Z,100742.44
2022-12-08T17:29:06.062Z,100741.78
2022-12-08T17:31:33.194Z,100750.19
2022-12-08T17:34:04.431Z,100743.78
2022-12-08T17:36:31.804Z,100749.28
2022-12-08T17:39:02.296Z,100744.19
2022-12-08T17:41:29.932Z,100743.38
2022-12-08T17:43:57.010Z,100742.91
2022-12-08T17:46:24.407Z,100743.31
2022-12-08T17:48:51.438Z,100750.47
2022-12-08T17:51:18.311Z,100741.63
2022-12-08T17:53:45.079Z,100747.13
2022-12-08T17:56:21.863Z,100753.00
2022-12-08T17:58:54.414Z,100761.00
2022-12-08T18:01:23.460Z,100756.75
2022-12-08T18:03:50.590Z,100765.16
2022-12-08T18:06:17.889Z,100754.41
2022-12-08T18:08:45.037Z,100751.06
2022-12-08T18:11:14.847Z,100752.94
2022-12-08T18:13:41.588Z,100758.59
2022-12-08T18:16:08.350Z,100761.56
2022-12-08T18:18:35.082Z,100755.41
2022-12-08T18:21:01.676Z,100753.72
2022-12-08T18:23:28.260Z,100751.19
2022-12-08T18:25:55.051Z,100748.66
2022-12-08T18:28:21.705Z,100747.78
2022-12-08T18:30:48.366Z,100752.25
2022-12-08T18:33:14.995Z,100750.72
2022-12-08T18:35:41.618Z,100754.53
2022-12-08T18:38:08.208Z,100751.59
2022-12-08T18:40:34.959Z,100751.59
2022-12-08T18:43:01.617Z,100757.06
2022-12-08T18:45:28.261Z,100753.66
2022-12-08T18:47:54.907Z,100756.41
2022-12-08T18:50:21.529Z,100756.22
2022-12-08T18:52:48.850Z,100756.81
2022-12-08T18:55:15.740Z,100761.25
2022-12-08T18:57:43.316Z,100756.38
2022-12-08T19:00:15.785Z,100774.28
2022-12-08T19:02:42.821Z,100770.88
2022-12-08T19:05:11.696Z,100773.81
2022-12-08T19:07:38.880Z,100771.28
2022-12-08T19:10:06.927Z,100773.19
2022-12-08T19:12:33.934Z,100774.41
2022-12-08T19:15:00.675Z,100773.41
2022-12-08T19:17:29.695Z,100770.66
2022-12-08T19:19:56.339Z,100770.00
2022-12-08T19:22:22.902Z,100773.78
2022-12-08T19:24:49.505Z,100769.56
2022-12-08T19:27:16.216Z,100779.66
2022-12-08T19:29:42.761Z,100778.38
2022-12-08T19:32:09.303Z,100777.50
2022-12-08T19:34:35.910Z,100774.97
2022-12-08T19:37:02.441Z,100766.09
2022-12-08T19:39:47.449Z,100776.22
2022-12-08T19:42:39.525Z,100778.09
2022-12-08T19:45:14.559Z,100782.53
2022-12-08T19:47:42.110Z,100780.56
2022-12-08T19:50:29.745Z,100785.84
2022-12-08T19:52:57.557Z,100786.25
2022-12-08T19:55:25.385Z,100785.41
2022-12-08T19:57:53.141Z,100792.97
2022-12-08T20:00:21.323Z,100790.22
2022-12-08T20:02:48.058Z,100795.03
2022-12-08T20:05:15.114Z,100789.13
2022-12-08T20:07:41.894Z,100796.47
2022-12-08T20:10:21.894Z,100794.78
2022-12-08T20:12:48.511Z,100797.53
2022-12-08T20:15:15.264Z,100803.81
2022-12-08T20:17:42.932Z,100799.59
2022-12-08T20:20:10.833Z,100795.63
2022-12-08T20:22:37.705Z,100799.59
2022-12-08T20:25:04.512Z,100803.41
2022-12-08T20:27:31.404Z,100809.22
2022-12-08T20:29:58.041Z,100807.34
2022-12-08T20:32:24.861Z,100805.47
2022-12-08T20:34:51.634Z,100812.34
2022-12-08T20:37:19.647Z,100811.69
2022-12-08T20:39:47.078Z,100810.81
2022-12-08T20:42:14.071Z,100807.06
2022-12-08T20:44:44.515Z,100814.63
2022-12-08T20:47:13.113Z,100820.94
2022-12-08T20:49:40.024Z,100812.47
2022-12-08T20:52:07.154Z,100823.88
2022-12-08T20:54:34.350Z,100827.81
2022-12-08T20:57:01.685Z,100824.06
2022-12-08T20:59:28.872Z,100825.09
2022-12-08T21:01:55.701Z,100826.13
2022-12-08T21:04:23.385Z,100829.91
2022-12-08T21:06:50.308Z,100829.25
2022-12-08T21:09:17.600Z,100824.66
2022-12-08T21:11:45.098Z,100831.59
2022-12-08T21:14:12.309Z,100835.19
2022-12-08T21:16:39.217Z,100829.72
2022-12-08T21:19:06.678Z,100833.47
2022-12-08T21:21:33.821Z,100828.19
2022-12-08T21:24:01.082Z,100835.38
2022-12-08T21:26:27.788Z,100835.59
2022-12-08T21:28:57.893Z,100832.00
2022-12-08T21:31:29.387Z,100831.59
2022-12-08T21:33:56.129Z,100832.84
2022-12-08T21:36:22.937Z,100843.59
2022-12-08T21:38:50.314Z,100833.66
2022-12-08T21:41:39.372Z,100847.16
2022-12-08T21:44:07.661Z,100839.81
2022-12-08T21:46:34.387Z,100841.88
2022-12-08T21:49:01.869Z,100840.19
2022-12-08T21:51:28.653Z,100838.31
2022-12-08T21:53:55.378Z,100834.25
2022-12-08T21:56:22.719Z,100835.09
2022-12-08T21:58:49.819Z,100838.69
2022-12-08T22:01:16.610Z,100839.72
2022-12-08T22:03:43.546Z,100841.63
2022-12-08T22:06:12.747Z,100848.97
2022-12-08T22:08:40.364Z,100854.25
2022-12-08T22:11:08.084Z,100847.09
2022-12-08T22:13:36.744Z,100848.13
2022-12-08T22:16:06.187Z,100852.81
2022-12-08T22:18:33.921Z,100852.00
2022-12-08T22:21:00.891Z,100841.19
2022-12-08T22:23:28.825Z,100847.88
2022-12-08T22:25:57.993Z,100852.91
2022-12-08T22:28:26.046Z,100845.72
2022-12-08T22:30:52.759Z,100848.81
2022-12-08T22:33:20.293Z,100848.81
2022-12-08T22:35:57.968Z,100845.66
2022-12-08T22:38:25.059Z,100851.94
2022-12-08T22:40:52.278Z,100837.16
2022-12-08T22:43:19.075Z,100843.09
2022-12-08T22:45:45.712Z,100844.31
2022-12-08T22:48:12.958Z,100838.84
2022-12-08T22:50:40.127Z,100834.63
2022-12-08T22:53:06.947Z,100842.16
2022-12-08T22:55:33.588Z,100840.09
2022-12-08T22:58:00.354Z,100838.41
2022-12-08T23:00:27.039Z,100826.13
2022-12-08T23:02:53.694Z,100830.56
2022-12-08T23:05:20.682Z,100830.38
2022-12-08T23:07:47.482Z,100827.84
2022-12-08T23:10:14.149Z,100822.75
2022-12-08T23:12:40.755Z,100824.44
2022-12-08T23:15:07.960Z,100815.56
2022-12-08T23:17:34.805Z,100822.75
2022-12-08T23:20:01.764Z,100810.09
2022-12-08T23:22:28.359Z,100811.16
2022-12-08T23:24:54.901Z,100805.06
2022-12-08T23:27:21.510Z,100817.66
2022-12-08T23:29:48.086Z,100816.00
2022-12-08T23:32:15.050Z,100811.53
2022-12-08T23:34:41.860Z,100809.66
2022-12-08T23:37:08.439Z,100805.88
2022-12-08T23:39:35.322Z,100810.53
2022-12-08T23:42:02.137Z,100809.84
2022-12-08T23:44:28.750Z,100811.28
2022-12-08T23:46:55.557Z,100820.13
2022-12-08T23:49:23.479Z,100815.88
2022-12-08T23:51:50.817Z,100811.28
2022-12-08T23:54:18.058Z,100807.03
2022-12-08T23:56:44.838Z,100801.75
2022-12-08T23:59:11.423Z,100807.03
